createdAt,value
2024-03-05T00:00:00.253Z,99798.78
2024-03-05T00:01:03.661Z,99796.44
2024-03-05T00:02:07.048Z,99798.78
2024-03-05T00:03:09.772Z,99798.62
2024-03-05T00:04:12.499Z,99795.69
2024-03-05T00:05:15.799Z,99784.97
2024-03-05T00:06:18.830Z,99795.94
2024-03-05T00:07:23.117Z,99792.75
2024-03-05T00:08:26.294Z,99798.13
2024-03-05T00:09:31.544Z,99799.06
2024-03-05T00:10:34.506Z,99794.91
2024-03-05T00:11:37.441Z,99791.69
2024-03-05T00:12:40.679Z,99796.41
2024-03-05T00:13:44.428Z,99799.19
2024-03-05T00:14:47.029Z,99797.50
2024-03-05T00:15:49.913Z,99793.97
2024-03-05T00:16:52.945Z,99799.03
2024-03-05T00:17:56.725Z,99799.78
2024-03-05T00:18:59.444Z,99799.69
2024-03-05T00:20:02.310Z,99796.84
2024-03-05T00:21:08.302Z,99801.22
2024-03-05T00:22:11.304Z,99796.06
2024-03-05T00:23:14.868Z,99802.22
2024-03-05T00:24:17.746Z,99797.00
2024-03-05T00:25:20.684Z,99803.34
2024-03-05T00:26:26.711Z,99795.75
2024-03-05T00:27:29.681Z,99803.56
2024-03-05T00:28:33.689Z,99803.66
2024-03-05T00:29:37.584Z,99799.44
2024-03-05T00:30:40.517Z,99805.50
2024-03-05T00:31:43.883Z,99805.66
2024-03-05T00:32:46.930Z,99804.72
2024-03-05T00:33:49.888Z,99807.28
2024-03-05T00:34:52.896Z,99810.72
2024-03-05T00:35:55.855Z,99807.94
2024-03-05T00:36:58.876Z,99789.41
2024-03-05T00:38:01.554Z,99812.31
2024-03-05T00:39:04.824Z,99809.78
2024-03-05T00:40:12.184Z,99810.72
2024-03-05T00:41:15.664Z,99805.56
2024-03-05T00:42:18.862Z,99790.50
2024-03-05T00:43:21.943Z,99807.44
2024-03-05T00:44:25.131Z,99800.00
2024-03-05T00:45:28.090Z,99803.22
2024-03-05T00:46:31.368Z,99805.16
2024-03-05T00:47:34.847Z,99811.37
2024-03-05T00:48:37.835Z,99803.69
2024-03-05T00:49:40.991Z,99802.09
2024-03-05T00:50:43.849Z,99803.09
2024-03-05T00:51:48.796Z,99800.47
2024-03-05T00:52:51.872Z,99800.56
2024-03-05T00:53:54.914Z,99805.09
2024-03-05T00:54:58.589Z,99803.47
2024-03-05T00:56:01.301Z,99809.72
2024-03-05T00:57:03.981Z,99802.91
2024-03-05T00:58:08.713Z,99809.16
2024-03-05T00:59:12.655Z,99809.31
2024-03-05T01:00:16.500Z,99806.72
2024-03-05T01:01:19.627Z,99806.03
2024-03-05T01:02:23.841Z,99803.44
2024-03-05T01:03:27.077Z,99789.03
2024-03-05T01:04:31.306Z,99804.22
2024-03-05T01:05:34.474Z,99800.66
2024-03-05T01:06:37.349Z,99805.88
2024-03-05T01:07:40.516Z,99810.19
2024-03-05T01:08:43.424Z,99811.03
2024-03-05T01:09:48.229Z,99811.03
2024-03-05T01:10:51.541Z,99813.78
2024-03-05T01:11:54.872Z,99811.09
2024-03-05T01:12:57.933Z,99813.19
2024-03-05T01:14:01.661Z,99817.69
2024-03-05T01:15:04.707Z,99813.22
2024-03-05T01:16:07.663Z,99817.53
2024-03-05T01:17:12.759Z,99819.44
2024-03-05T01:18:15.712Z,99770.44
2024-03-05T01:19:18.500Z,99810.94
2024-03-05T01:20:21.626Z,99820.38
2024-03-05T01:21:24.784Z,99818.75
2024-03-05T01:22:28.343Z,99813.72
2024-03-05T01:23:31.992Z,99813.72
2024-03-05T01:24:34.676Z,99812.88
2024-03-05T01:25:38.768Z,99818.19
2024-03-05T01:26:44.599Z,99819.16
2024-03-05T01:27:47.559Z,99819.38
2024-03-05T01:28:50.263Z,99814.28
2024-03-05T01:29:54.045Z,99819.63
2024-03-05T01:30:56.982Z,99819.84
2024-03-05T01:32:01.584Z,99821.69
2024-03-05T01:33:07.119Z,99796.34
2024-03-05T01:34:10.233Z,99823.97
2024-03-05T01:35:14.294Z,99817.63
2024-03-05T01:36:18.804Z,99794.16
2024-03-05T01:37:22.272Z,99824.91
2024-03-05T01:38:25.416Z,99825.84
2024-03-05T01:39:29.692Z,99820.69
2024-03-05T01:40:32.616Z,99828.59
2024-03-05T01:41:35.576Z,99779.75
2024-03-05T01:42:38.964Z,99832.87
2024-03-05T01:43:42.076Z,99831.13
2024-03-05T01:44:44.982Z,99832.81
2024-03-05T01:45:49.431Z,99827.53
2024-03-05T01:46:55.265Z,99836.13
2024-03-05T01:48:00.919Z,99830.97
2024-03-05T01:49:04.567Z,99823.44
2024-03-05T01:50:10.563Z,99834.81
2024-03-05T01:51:16.319Z,99829.59
2024-03-05T01:52:19.614Z,99828.91
2024-03-05T01:53:24.151Z,99834.97
2024-03-05T01:54:30.105Z,99836.72
2024-03-05T01:55:34.284Z,99833.56
2024-03-05T01:56:38.456Z,99832.13
2024-03-05T01:57:44.943Z,99846.00
2024-03-05T01:58:47.978Z,99842.75
2024-03-05T01:59:51.509Z,99838.94
2024-03-05T02:00:57.537Z,99843.13
2024-03-05T02:02:01.120Z,99839.00
2024-03-05T02:03:04.486Z,99837.69
2024-03-05T02:04:07.371Z,99845.56
2024-03-05T02:05:10.317Z,99845.56
2024-03-05T02:06:14.844Z,99848.94
2024-03-05T02:07:19.057Z,99851.69
2024-03-05T02:08:22.551Z,99798.25
2024-03-05T02:09:25.700Z,99844.75
2024-03-05T02:10:28.830Z,99843.47
2024-03-05T02:11:33.366Z,99842.53
2024-03-05T02:12:42.144Z,99841.06
2024-03-05T02:13:45.469Z,99839.22
2024-03-05T02:14:49.230Z,99850.63
2024-03-05T02:15:52.166Z,99845.72
2024-03-05T02:16:57.478Z,99849.06
2024-03-05T02:18:00.411Z,99839.63
2024-03-05T02:19:08.098Z,99851.72
2024-03-05T02:20:14.866Z,99840.81
2024-03-05T02:21:22.357Z,99834.78
2024-03-05T02:22:25.364Z,99854.56
2024-03-05T02:23:28.514Z,99856.44
2024-03-05T02:24:31.367Z,99864.41
2024-03-05T02:25:34.174Z,99847.56
2024-03-05T02:26:37.190Z,99857.66
2024-03-05T02:27:41.665Z,99851.63
2024-03-05T02:28:47.735Z,99853.69
2024-03-05T02:29:52.173Z,99853.75
2024-03-05T02:30:54.853Z,99858.03
2024-03-05T02:31:58.276Z,99845.25
2024-03-05T02:33:02.672Z,99856.16
2024-03-05T02:34:06.254Z,99859.72
2024-03-05T02:35:10.027Z,99860.72
2024-03-05T02:36:12.640Z,99860.62
2024-03-05T02:37:15.275Z,99859.59
2024-03-05T02:38:17.957Z,99853.59
2024-03-05T02:39:21.389Z,99851.22
2024-03-05T02:40:26.629Z,99855.69
2024-03-05T02:41:29.694Z,99866.88
2024-03-05T02:42:32.760Z,99867.03
2024-03-05T02:43:35.396Z,99868.72
2024-03-05T02:44:38.636Z,99856.69
2024-03-05T02:45:41.288Z,99869.56
2024-03-05T02:46:44.173Z,99869.84
2024-03-05T02:47:47.894Z,99866.41
2024-03-05T02:48:50.541Z,99865.69
2024-03-05T02:49:53.679Z,99872.91
2024-03-05T02:50:56.500Z,99846.88
2024-03-05T02:51:59.378Z,99869.91
2024-03-05T02:53:04.339Z,99872.75
2024-03-05T02:54:09.891Z,99854.19
2024-03-05T02:55:14.108Z,99872.84
2024-03-05T02:56:16.883Z,99870.03
2024-03-05T02:57:19.741Z,99875.25
2024-03-05T02:58:22.938Z,99867.53
2024-03-05T02:59:25.880Z,99878.47
2024-03-05T03:00:29.029Z,99872.34
2024-03-05T03:01:32.136Z,99877.63
2024-03-05T03:02:35.803Z,99875.25
2024-03-05T03:03:38.670Z,99881.22
2024-03-05T03:04:41.671Z,99875.31
2024-03-05T03:05:46.730Z,99880.56
2024-03-05T03:06:49.682Z,99881.34
2024-03-05T03:07:53.117Z,99881.34
2024-03-05T03:08:57.339Z,99883.06
2024-03-05T03:10:00.811Z,99882.28
2024-03-05T03:11:04.216Z,99886.97
2024-03-05T03:12:07.382Z,99883.72
2024-03-05T03:13:10.707Z,99879.16
2024-03-05T03:14:13.653Z,99882.28
2024-03-05T03:15:17.730Z,99887.53
2024-03-05T03:16:20.687Z,99887.69
2024-03-05T03:17:23.550Z,99887.09
2024-03-05T03:18:26.505Z,99887.31
2024-03-05T03:19:29.390Z,99889.94
2024-03-05T03:20:33.854Z,99897.00
2024-03-05T03:21:37.004Z,99887.50
2024-03-05T03:22:39.992Z,99891.78
2024-03-05T03:23:42.888Z,99884.00
2024-03-05T03:24:45.799Z,99879.06
2024-03-05T03:25:48.386Z,99885.09
2024-03-05T03:26:52.288Z,99894.63
2024-03-05T03:27:54.983Z,99896.53
2024-03-05T03:28:58.519Z,99895.31
2024-03-05T03:30:01.640Z,99901.03
2024-03-05T03:31:07.005Z,99901.63
2024-03-05T03:32:13.152Z,99886.06
2024-03-05T03:33:15.803Z,99896.97
2024-03-05T03:34:18.787Z,99904.88
2024-03-05T03:35:21.454Z,99904.91
2024-03-05T03:36:25.420Z,99903.16
2024-03-05T03:37:30.117Z,99896.41
2024-03-05T03:38:37.312Z,99905.00
2024-03-05T03:39:43.843Z,99908.44
2024-03-05T03:40:46.617Z,99894.13
2024-03-05T03:41:50.206Z,99907.66
2024-03-05T03:42:53.821Z,99903.44
2024-03-05T03:43:56.885Z,99906.12
2024-03-05T03:44:59.523Z,99902.84
2024-03-05T03:46:02.191Z,99905.47
2024-03-05T03:47:06.077Z,99902.94
2024-03-05T03:48:09.099Z,99901.94
2024-03-05T03:49:12.050Z,99904.75
2024-03-05T03:50:15.360Z,99896.31
2024-03-05T03:51:18.503Z,99906.00
2024-03-05T03:52:21.412Z,99905.31
2024-03-05T03:53:24.317Z,99903.69
2024-03-05T03:54:27.185Z,99903.69
2024-03-05T03:55:30.075Z,99904.53
2024-03-05T03:56:35.291Z,99915.78
2024-03-05T03:57:38.572Z,99906.22
2024-03-05T03:58:42.676Z,99914.22
2024-03-05T03:59:45.332Z,99913.66
2024-03-05T04:00:47.978Z,99912.94
2024-03-05T04:01:51.724Z,99906.97
2024-03-05T04:02:54.457Z,99907.72
2024-03-05T04:03:58.025Z,99906.88
2024-03-05T04:05:00.668Z,99907.59
2024-03-05T04:06:03.899Z,99912.78
2024-03-05T04:07:07.639Z,99908.47
2024-03-05T04:08:10.303Z,99911.81
2024-03-05T04:09:15.437Z,99913.53
2024-03-05T04:10:18.361Z,99911.53
2024-03-05T04:11:23.237Z,99904.75
2024-03-05T04:12:26.417Z,99921.12
2024-03-05T04:13:29.333Z,99909.41
2024-03-05T04:14:31.967Z,99912.00
2024-03-05T04:15:34.642Z,99915.50
2024-03-05T04:16:41.440Z,99916.34
2024-03-05T04:17:45.507Z,99895.09
2024-03-05T04:18:48.264Z,99914.09
2024-03-05T04:19:51.111Z,99917.03
2024-03-05T04:20:54.839Z,99921.53
2024-03-05T04:21:57.691Z,99914.66
2024-03-05T04:23:00.698Z,99913.19
2024-03-05T04:24:03.652Z,99912.44
2024-03-05T04:25:07.197Z,99925.72
2024-03-05T04:26:14.641Z,99918.75
2024-03-05T04:27:19.774Z,99915.31
2024-03-05T04:28:22.730Z,99910.31
2024-03-05T04:29:31.333Z,99917.78
2024-03-05T04:30:34.035Z,99905.19
2024-03-05T04:31:46.987Z,99911.09
2024-03-05T04:32:59.429Z,99910.53
2024-03-05T04:34:04.300Z,99913.00
2024-03-05T04:35:12.355Z,99913.81
2024-03-05T04:36:16.647Z,99904.19
2024-03-05T04:37:19.656Z,99918.94
2024-03-05T04:38:22.585Z,99915.44
2024-03-05T04:39:25.518Z,99911.22
2024-03-05T04:40:31.292Z,99907.78
2024-03-05T04:41:34.284Z,99902.59
2024-03-05T04:42:39.123Z,99909.50
2024-03-05T04:43:44.532Z,99913.88
2024-03-05T04:44:47.796Z,99918.25
2024-03-05T04:45:50.424Z,99907.69
2024-03-05T04:46:53.462Z,99907.00
2024-03-05T04:47:56.783Z,99913.75
2024-03-05T04:48:59.356Z,99911.09
2024-03-05T04:50:02.731Z,99913.75
2024-03-05T04:51:09.734Z,99914.41
2024-03-05T04:52:12.528Z,99915.59
2024-03-05T04:53:15.659Z,99919.78
2024-03-05T04:54:18.573Z,99912.06
2024-03-05T04:55:23.231Z,99908.66
2024-03-05T04:56:26.273Z,99921.06
2024-03-05T04:57:29.117Z,99899.50
2024-03-05T04:58:32.091Z,99915.44
2024-03-05T04:59:34.990Z,99902.63
2024-03-05T05:00:37.923Z,99906.78
2024-03-05T05:01:41.278Z,99912.91
2024-03-05T05:02:44.250Z,99915.44
2024-03-05T05:03:47.277Z,99915.22
2024-03-05T05:04:50.309Z,99913.47
2024-03-05T05:05:56.624Z,99919.56
2024-03-05T05:07:00.780Z,99914.53
2024-03-05T05:08:05.208Z,99919.59
2024-03-05T05:09:10.072Z,99916.16
2024-03-05T05:10:13.135Z,99913.75
2024-03-05T05:11:16.309Z,99922.47
2024-03-05T05:12:19.046Z,99926.13
2024-03-05T05:13:22.008Z,99917.66
2024-03-05T05:14:24.649Z,99923.00
2024-03-05T05:15:27.407Z,99873.19
2024-03-05T05:16:30.541Z,99930.94
2024-03-05T05:17:34.174Z,99918.19
2024-03-05T05:18:36.819Z,99925.19
2024-03-05T05:19:42.423Z,99927.13
2024-03-05T05:20:45.898Z,99932.28
2024-03-05T05:21:48.934Z,99927.88
2024-03-05T05:22:51.920Z,99931.19
2024-03-05T05:23:54.626Z,99927.63
2024-03-05T05:25:00.411Z,99929.16
2024-03-05T05:26:03.494Z,99934.38
2024-03-05T05:27:06.806Z,99933.97
2024-03-05T05:28:12.843Z,99935.66
2024-03-05T05:29:24.040Z,99937.50
2024-03-05T05:30:34.731Z,99933.94
2024-03-05T05:31:38.102Z,99938.84
2024-03-05T05:32:42.323Z,99932.03
2024-03-05T05:33:45.522Z,99935.47
2024-03-05T05:34:48.410Z,99935.53
2024-03-05T05:35:51.576Z,99939.03
2024-03-05T05:36:54.559Z,99940.00
2024-03-05T05:37:58.840Z,99936.56
2024-03-05T05:39:01.925Z,99936.53
2024-03-05T05:40:05.297Z,99937.09
2024-03-05T05:41:07.944Z,99935.38
2024-03-05T05:42:13.272Z,99935.66
2024-03-05T05:43:16.146Z,99936.56
2024-03-05T05:44:19.875Z,99937.50
2024-03-05T05:45:25.602Z,99940.97
2024-03-05T05:46:29.363Z,99942.69
2024-03-05T05:47:33.327Z,99939.37
2024-03-05T05:48:36.757Z,99946.13
2024-03-05T05:49:40.210Z,99874.13
2024-03-05T05:50:43.529Z,99938.91
2024-03-05T05:51:49.941Z,99942.16
2024-03-05T05:52:54.518Z,99935.06
2024-03-05T05:54:01.951Z,99939.03
2024-03-05T05:55:07.384Z,99939.69
2024-03-05T05:56:10.879Z,99935.06
2024-03-05T05:57:13.672Z,99939.84
2024-03-05T05:58:16.677Z,99940.34
2024-03-05T05:59:20.090Z,99941.13
2024-03-05T06:00:33.366Z,99946.13
2024-03-05T06:01:39.007Z,99942.03
2024-03-05T06:02:41.984Z,99936.62
2024-03-05T06:03:47.780Z,99942.31
2024-03-05T06:04:50.946Z,99948.22
2024-03-05T06:05:54.215Z,99941.22
2024-03-05T06:06:58.104Z,99941.88
2024-03-05T06:08:01.565Z,99944.19
2024-03-05T06:09:09.806Z,99948.28
2024-03-05T06:10:18.513Z,99938.56
2024-03-05T06:11:21.337Z,99929.78
2024-03-05T06:12:26.675Z,99938.38
2024-03-05T06:13:30.704Z,99938.38
2024-03-05T06:14:33.292Z,99938.06
2024-03-05T06:15:40.054Z,99941.22
2024-03-05T06:16:44.015Z,99940.78
2024-03-05T06:17:47.720Z,99934.38
2024-03-05T06:18:50.601Z,99951.84
2024-03-05T06:19:54.761Z,99942.13
2024-03-05T06:20:58.441Z,99929.09
2024-03-05T06:22:01.513Z,99945.59
2024-03-05T06:23:05.009Z,99944.03
2024-03-05T06:24:08.010Z,99937.47
2024-03-05T06:25:14.734Z,99932.75
2024-03-05T06:26:20.394Z,99936.38
2024-03-05T06:27:35.851Z,99943.78
2024-03-05T06:28:39.318Z,99948.84
2024-03-05T06:29:43.467Z,99942.94
2024-03-05T06:30:47.474Z,99948.19
2024-03-05T06:31:50.168Z,99944.53
2024-03-05T06:32:54.033Z,99944.25
2024-03-05T06:33:57.876Z,99940.97
2024-03-05T06:35:00.952Z,99942.84
2024-03-05T06:36:07.766Z,99943.25
2024-03-05T06:37:10.451Z,99937.97
2024-03-05T06:38:16.282Z,99944.19
2024-03-05T06:39:21.027Z,99944.44
2024-03-05T06:40:24.984Z,99939.78
2024-03-05T06:41:32.998Z,99946.19
2024-03-05T06:42:43.208Z,99934.78
2024-03-05T06:43:45.952Z,99941.00
2024-03-05T06:44:52.602Z,99932.37
2024-03-05T06:45:57.544Z,99936.69
2024-03-05T06:47:00.464Z,99944.09
2024-03-05T06:49:16.435Z,99945.94
2024-03-05T06:50:24.818Z,99950.97
2024-03-05T06:51:30.943Z,99947.69
2024-03-05T06:52:52.897Z,99956.13
2024-03-05T06:54:14.175Z,99953.00
2024-03-05T06:55:35.331Z,99958.47
2024-03-05T06:56:41.317Z,99954.13
2024-03-05T06:57:43.963Z,99954.75
2024-03-05T06:58:49.003Z,99960.69
2024-03-05T06:59:52.323Z,99955.13
2024-03-05T07:00:55.292Z,99958.69
2024-03-05T07:01:58.501Z,99962.37
2024-03-05T07:03:01.473Z,99963.78
2024-03-05T07:04:07.038Z,99962.75
2024-03-05T07:05:10.110Z,99964.59
2024-03-05T07:06:16.625Z,99961.47
2024-03-05T07:07:19.837Z,99956.56
2024-03-05T07:08:26.102Z,99968.25
2024-03-05T07:09:32.125Z,99970.47
2024-03-05T07:10:35.709Z,99970.75
2024-03-05T07:11:38.658Z,99969.94
2024-03-05T07:12:46.187Z,99967.41
2024-03-05T07:13:50.390Z,99967.66
2024-03-05T07:14:53.752Z,99954.41
2024-03-05T07:15:57.980Z,99967.88
2024-03-05T07:17:00.977Z,99971.81
2024-03-05T07:18:04.515Z,99973.47
2024-03-05T07:19:07.919Z,99972.53
2024-03-05T07:20:23.785Z,99978.31
2024-03-05T07:21:28.065Z,99970.84
2024-03-05T07:22:31.054Z,99972.22
2024-03-05T07:23:34.665Z,99965.41
2024-03-05T07:24:37.385Z,99973.38
2024-03-05T07:25:40.093Z,99967.91
2024-03-05T07:26:49.557Z,99971.25
2024-03-05T07:27:56.017Z,99972.13
2024-03-05T07:28:59.466Z,99974.34
2024-03-05T07:30:02.120Z,99971.28
2024-03-05T07:31:05.038Z,99968.69
2024-03-05T07:32:08.761Z,99971.00
2024-03-05T07:33:11.568Z,99972.91
2024-03-05T07:34:14.656Z,99969.38
2024-03-05T07:35:19.626Z,99974.84
2024-03-05T07:36:22.875Z,99984.34
2024-03-05T07:37:25.519Z,99982.31
2024-03-05T07:38:28.306Z,99980.09
2024-03-05T07:39:31.329Z,99980.88
2024-03-05T07:40:34.118Z,99984.25
2024-03-05T07:41:37.428Z,99943.72
2024-03-05T07:42:54.546Z,99978.28
2024-03-05T07:43:57.809Z,99980.69
2024-03-05T07:45:01.102Z,99973.94
2024-03-05T07:46:04.605Z,99989.06
2024-03-05T07:47:07.859Z,99977.41
2024-03-05T07:48:15.058Z,99980.75
2024-03-05T07:49:17.817Z,99988.69
2024-03-05T07:50:21.212Z,99988.94
2024-03-05T07:51:25.324Z,99970.50
2024-03-05T07:52:31.941Z,99981.53
2024-03-05T07:53:34.554Z,99947.78
2024-03-05T07:54:37.145Z,99985.16
2024-03-05T07:55:46.639Z,99984.31
2024-03-05T07:56:50.259Z,99983.44
2024-03-05T07:57:57.997Z,99980.72
2024-03-05T07:59:01.003Z,99982.00
2024-03-05T08:00:09.900Z,99978.25
2024-03-05T08:01:13.322Z,99977.87
2024-03-05T08:02:19.227Z,99981.81
2024-03-05T08:03:22.120Z,99980.50
2024-03-05T08:04:24.977Z,99981.69
2024-03-05T08:05:27.733Z,99989.72
2024-03-05T08:06:32.048Z,99987.84
2024-03-05T08:07:36.845Z,99985.66
2024-03-05T08:08:39.903Z,99977.19
2024-03-05T08:09:42.520Z,99985.91
2024-03-05T08:10:50.327Z,99984.72
2024-03-05T08:11:53.566Z,99987.00
2024-03-05T08:12:57.114Z,99990.47
2024-03-05T08:13:59.883Z,99984.38
2024-03-05T08:15:07.615Z,99986.88
2024-03-05T08:16:11.252Z,99985.41
2024-03-05T08:17:14.468Z,99975.78
2024-03-05T08:18:17.310Z,99990.94
2024-03-05T08:19:21.043Z,99985.97
2024-03-05T08:20:26.889Z,99985.47
2024-03-05T08:21:29.612Z,99969.50
2024-03-05T08:22:32.518Z,99983.91
2024-03-05T08:23:35.464Z,99979.34
2024-03-05T08:24:39.409Z,99983.25
2024-03-05T08:25:43.857Z,99983.41
2024-03-05T08:26:48.865Z,99985.91
2024-03-05T08:27:56.417Z,99990.06
2024-03-05T08:28:59.398Z,99991.34
2024-03-05T08:30:02.364Z,99993.03
2024-03-05T08:31:05.297Z,99995.81
2024-03-05T08:32:10.564Z,99993.56
2024-03-05T08:33:15.044Z,99987.06
2024-03-05T08:34:17.690Z,99981.28
2024-03-05T08:35:21.442Z,99980.16
2024-03-05T08:36:26.604Z,99994.41
2024-03-05T08:37:29.677Z,99994.03
2024-03-05T08:38:32.785Z,99992.63
2024-03-05T08:39:38.085Z,99993.31
2024-03-05T08:40:41.005Z,99995.09
2024-03-05T08:41:45.620Z,99995.72
2024-03-05T08:42:49.660Z,99997.78
2024-03-05T08:43:52.573Z,100003.13
2024-03-05T08:44:55.898Z,99998.59
2024-03-05T08:45:58.919Z,100003.47
2024-03-05T08:47:01.973Z,99999.84
2024-03-05T08:48:05.059Z,99985.09
2024-03-05T08:49:08.099Z,99986.69
2024-03-05T08:50:12.416Z,99997.62
2024-03-05T08:51:15.283Z,99995.56
2024-03-05T08:52:19.297Z,99993.31
2024-03-05T08:53:21.955Z,100001.53
2024-03-05T08:54:25.113Z,99993.13
2024-03-05T08:55:28.308Z,99992.38
2024-03-05T08:56:31.008Z,99993.50
2024-03-05T08:57:33.666Z,99959.34
2024-03-05T08:58:36.841Z,100001.53
2024-03-05T08:59:40.079Z,100000.19
2024-03-05T09:00:43.877Z,100004.66
2024-03-05T09:01:46.870Z,99990.44
2024-03-05T09:02:49.789Z,99991.16
2024-03-05T09:03:53.478Z,99998.97
2024-03-05T09:04:56.457Z,99993.78
2024-03-05T09:05:59.341Z,99992.69
2024-03-05T09:07:02.856Z,100000.09
2024-03-05T09:08:06.804Z,99992.16
2024-03-05T09:09:12.517Z,99994.66
2024-03-05T09:10:19.175Z,99993.19
2024-03-05T09:11:22.323Z,100003.63
2024-03-05T09:12:25.499Z,99982.84
2024-03-05T09:13:28.187Z,99991.63
2024-03-05T09:14:31.475Z,99987.88
2024-03-05T09:16:40.592Z,99990.84
2024-03-05T09:17:43.326Z,99987.63
2024-03-05T09:18:46.338Z,99995.59
2024-03-05T09:19:49.784Z,99986.22
2024-03-05T09:20:52.765Z,99985.37
2024-03-05T09:21:55.336Z,99996.66
2024-03-05T09:22:57.993Z,99994.00
2024-03-05T09:24:00.667Z,99990.91
2024-03-05T09:25:03.318Z,99991.16
2024-03-05T09:26:09.017Z,99993.22
2024-03-05T09:27:12.433Z,99989.03
2024-03-05T09:28:15.273Z,100000.72
2024-03-05T09:29:18.023Z,99991.47
2024-03-05T09:30:20.985Z,99986.63
2024-03-05T09:31:24.205Z,99982.16
2024-03-05T09:32:26.821Z,100000.37
2024-03-05T09:33:30.631Z,99991.19
2024-03-05T09:34:33.354Z,99990.38
2024-03-05T09:35:36.296Z,99996.94
2024-03-05T09:36:40.357Z,99994.44
2024-03-05T09:37:46.869Z,100002.81
2024-03-05T09:38:50.834Z,100003.13
2024-03-05T09:39:55.165Z,99967.53
2024-03-05T09:40:58.040Z,99993.59
2024-03-05T09:42:01.252Z,99997.06
2024-03-05T09:43:05.395Z,99997.16
2024-03-05T09:44:09.370Z,99997.12
2024-03-05T09:45:17.230Z,99993.19
2024-03-05T09:46:22.052Z,100000.00
2024-03-05T09:47:25.832Z,99997.34
2024-03-05T09:48:28.457Z,99998.47
2024-03-05T09:49:31.152Z,99998.31
2024-03-05T09:50:34.665Z,99996.62
2024-03-05T09:51:40.532Z,99991.81
2024-03-05T09:52:45.282Z,100001.94
2024-03-05T09:53:48.052Z,100001.53
2024-03-05T09:54:51.010Z,100006.00
2024-03-05T09:55:55.308Z,100001.56
2024-03-05T09:56:59.435Z,100002.75
2024-03-05T09:58:07.020Z,100003.44
2024-03-05T09:59:17.788Z,100002.16
2024-03-05T10:00:22.038Z,100000.53
2024-03-05T10:01:25.611Z,100001.50
2024-03-05T10:02:30.111Z,100006.37
2024-03-05T10:03:35.289Z,100002.25
2024-03-05T10:04:42.895Z,100010.22
2024-03-05T10:05:45.541Z,100007.00
2024-03-05T10:06:50.030Z,100006.31
2024-03-05T10:07:52.728Z,100007.84
2024-03-05T10:08:55.388Z,100006.41
2024-03-05T10:10:12.016Z,100010.16
2024-03-05T10:11:15.376Z,100008.09
2024-03-05T10:12:18.372Z,100010.94
2024-03-05T10:13:21.315Z,100009.34
2024-03-05T10:14:25.470Z,100012.97
2024-03-05T10:15:28.756Z,100007.97
2024-03-05T10:16:31.338Z,100013.72
2024-03-05T10:17:50.881Z,100001.56
2024-03-05T10:18:53.890Z,100002.69
2024-03-05T10:19:56.496Z,100003.50
2024-03-05T10:21:16.829Z,100009.66
2024-03-05T10:22:19.488Z,100003.66
2024-03-05T10:23:23.543Z,100002.50
2024-03-05T10:24:35.846Z,99998.16
2024-03-05T10:25:41.295Z,100002.47
2024-03-05T10:26:44.774Z,100001.09
2024-03-05T10:27:51.127Z,99997.72
2024-03-05T10:28:57.499Z,100003.94
2024-03-05T10:30:00.526Z,100007.50
2024-03-05T10:31:06.197Z,99998.72
2024-03-05T10:32:12.765Z,99997.00
2024-03-05T10:33:15.458Z,100005.88
2024-03-05T10:34:20.325Z,100000.75
2024-03-05T10:35:23.808Z,99995.66
2024-03-05T10:36:37.959Z,99984.38
2024-03-05T10:37:40.589Z,99998.09
2024-03-05T10:38:43.230Z,99993.63
2024-03-05T10:39:46.987Z,99993.94
2024-03-05T10:40:51.409Z,99990.44
2024-03-05T10:41:55.060Z,99987.50
2024-03-05T10:43:00.475Z,99992.38
2024-03-05T10:44:03.220Z,99988.28
2024-03-05T10:45:10.515Z,99993.50
2024-03-05T10:46:14.446Z,99993.06
2024-03-05T10:47:18.001Z,99988.75
2024-03-05T10:48:22.115Z,99991.66
2024-03-05T10:49:25.476Z,99985.59
2024-03-05T10:50:29.828Z,99977.00
2024-03-05T10:51:40.004Z,99984.22
2024-03-05T10:52:44.219Z,99985.22
2024-03-05T10:53:50.048Z,99992.69
2024-03-05T10:54:55.629Z,99979.53
2024-03-05T10:55:59.300Z,99986.81
2024-03-05T10:57:02.082Z,99992.38
2024-03-05T10:58:25.546Z,99992.06
2024-03-05T10:59:49.007Z,99980.06
2024-03-05T11:00:52.180Z,99977.38
2024-03-05T11:01:59.935Z,99979.50
2024-03-05T11:03:10.076Z,99972.34
2024-03-05T11:04:23.137Z,99984.69
2024-03-05T11:05:27.690Z,99976.84
2024-03-05T11:06:30.834Z,99978.63
2024-03-05T11:07:34.782Z,99978.50
2024-03-05T11:08:38.067Z,99978.84
2024-03-05T11:09:42.138Z,99970.25
2024-03-05T11:10:52.215Z,99970.59
2024-03-05T11:12:03.495Z,99971.84
2024-03-05T11:13:07.248Z,99979.22
2024-03-05T11:14:11.554Z,99955.00
2024-03-05T11:15:15.015Z,99972.31
2024-03-05T11:16:19.347Z,99969.44
2024-03-05T11:17:23.920Z,99965.94
2024-03-05T11:18:37.654Z,99966.94
2024-03-05T11:19:44.031Z,99935.69
2024-03-05T11:20:48.957Z,99969.50
2024-03-05T11:21:51.595Z,99968.19
2024-03-05T11:22:58.181Z,99963.84
2024-03-05T11:24:04.292Z,99954.47
2024-03-05T11:25:07.727Z,99959.56
2024-03-05T11:26:24.431Z,99959.41
2024-03-05T11:27:31.886Z,99960.97
2024-03-05T11:28:41.134Z,99962.28
2024-03-05T11:29:44.697Z,99953.16
2024-03-05T11:30:48.472Z,99965.91
2024-03-05T11:31:54.826Z,99957.63
2024-03-05T11:33:11.335Z,99958.28
2024-03-05T11:34:21.641Z,99931.06
2024-03-05T11:35:27.584Z,99958.09
2024-03-05T11:36:40.051Z,99960.94
2024-03-05T11:37:52.310Z,99962.59
2024-03-05T11:39:04.627Z,99947.91
2024-03-05T11:40:11.696Z,99961.09
2024-03-05T11:41:25.169Z,99957.34
2024-03-05T11:42:33.991Z,99954.44
2024-03-05T11:43:42.525Z,99959.97
2024-03-05T11:44:45.513Z,99954.50
2024-03-05T11:45:52.676Z,99955.22
2024-03-05T11:46:57.852Z,99956.88
2024-03-05T11:48:03.412Z,99952.25
2024-03-05T11:49:07.018Z,99960.69
2024-03-05T11:50:10.147Z,99959.53
2024-03-05T11:51:14.262Z,99952.91
2024-03-05T11:52:19.986Z,99955.31
2024-03-05T11:53:24.209Z,99952.56
2024-03-05T11:54:27.145Z,99950.75
2024-03-05T11:55:29.967Z,99948.63
2024-03-05T11:56:33.241Z,99943.94
2024-03-05T11:57:36.229Z,99947.00
2024-03-05T11:58:39.613Z,99946.31
2024-03-05T11:59:42.482Z,99941.22
2024-03-05T12:00:48.227Z,99944.56
2024-03-05T12:01:51.557Z,99945.59
2024-03-05T12:02:54.808Z,99945.81
2024-03-05T12:04:09.609Z,99934.44
2024-03-05T12:05:17.082Z,99932.81
2024-03-05T12:06:20.403Z,99940.28
2024-03-05T12:07:23.979Z,99938.97
2024-03-05T12:08:26.929Z,99937.94
2024-03-05T12:09:29.934Z,99933.47
2024-03-05T12:10:33.356Z,99937.78
2024-03-05T12:11:36.156Z,99933.28
2024-03-05T12:12:39.465Z,99933.47
2024-03-05T12:13:47.123Z,99932.56
2024-03-05T12:14:55.463Z,99927.97
2024-03-05T12:16:12.803Z,99930.94
2024-03-05T12:17:15.442Z,99932.28
2024-03-05T12:18:18.641Z,99930.41
2024-03-05T12:19:21.530Z,99934.44
2024-03-05T12:20:24.916Z,99935.78
2024-03-05T12:21:29.027Z,99930.59
2024-03-05T12:22:32.855Z,99936.62
2024-03-05T12:23:41.798Z,99934.28
2024-03-05T12:24:46.283Z,99891.75
2024-03-05T12:25:49.011Z,99935.94
2024-03-05T12:26:54.737Z,99930.47
2024-03-05T12:28:00.788Z,99936.88
2024-03-05T12:29:03.937Z,99938.56
2024-03-05T12:30:08.215Z,99936.38
2024-03-05T12:31:11.338Z,99924.13
2024-03-05T12:32:14.646Z,99933.72
2024-03-05T12:33:24.359Z,99929.75
2024-03-05T12:34:29.490Z,99933.31
2024-03-05T12:35:32.760Z,99934.34
2024-03-05T12:36:35.836Z,99930.31
2024-03-05T12:37:40.926Z,99926.75